Share

Phillips, WI

Downtown (BP station) (KWIPHILL1) Elev 1470 ft | 45.69 °N, 90.40 °W | Change Station

Current weather conditions updated 10 minutes ago

Clear
Clear
32.4 °F
Feels Like 28 °F
N
5.0
Wind Variable Wind from South
Gusts 14.0 mph
Sunrise 6:08 AM
Sunset 7:53 PM
Moon Waning Gibbous

Today is forecast to be Much Warmer than yesterday. Afternoon showers.

Pressure 30.32 in
Visibility 10.0 miles
Clouds Clear
Windchill 28 °F
Dew Point 25 °F
Humidity 74%
Rainfall 0.00 in
Snow Depth Not available.
UV 0 out of 16
Pollen 8.40 out of 12
Air Quality Not available.
Flu Activity Sporadic
METAR KPBH 190955Z AUTO 13010G17KT 10SM CLR 00/M04 A3032 RMK AO2 T00031041

More Conditions Fewer Conditions

Pressure 30.32 in
Visibility 10.0 miles
Clouds Clear
Windchill 28 °F
Dew Point 25 °F
Humidity 74%
Rainfall 0.00 in
Snow Depth Not available.
UV 0 out of 16
Pollen 8.40 out of 12
Air Quality Not available.
Flu Activity Sporadic
METAR KPBH 190955Z AUTO 13010G17KT 10SM CLR 00/M04 A3032 RMK AO2 T00031041

More Conditions Fewer Conditions

10-Day Weather Forecast

Almanac

Astronomy

Apr. 19, 2014 Rise Set
Actual Time 6:08 AM CDT 7:53 PM CDT
Civil Twilight 5:37 AM CDT 8:24 PM CDT
Nautical Twilight 4:59 AM CDT 9:03 PM CDT
Astronomical Twilight 4:17 AM CDT 9:45 PM CDT
Moon No Moon Rise 9:20 AM CDT
Length of Visible Light 14h 47m
Length of Day
13h 44m
Tomorrow will be 3m 1s longer.
Waning Gibbous, 81% of the Moon is Illuminated
Today
Waning Gibbous
Apr 22
Last Quarter
Apr 29
New
May 6
First Quarter
May 14
Full

Today's Extremes

State Highs State Lows

Community

  • Bleeding Hearts
    Bleeding Hearts
  • Sunset Silhouettes
    Sunset Silhouettes
  • FL sunset Perico Isle
    FL sunset Perico Isle
  • Cloudy spring view
    Cloudy spring view
  • Old barn
    Old barn

WunderPhotos

Upload Photos

1,702,676 photos uploaded!

WunderBlogs® & News

Nearby

Snow Depth

Station Depth Elevation
No new snow has been reported.

Coastal Water Temperatures

Place Temperature
No Stations Reporting

Earthquake Activity

City Distance Mag. Time & Date
No recent earthquake activity has been reported nearby.
Minimum magnitude displayed is 2.5.

Nearby Weather Stations

Station Location Temp. Windchill Dew Point Humidity Wind Precip. Elev Updated Type
Downtown (BP station), Phillips, WI 32.4 °F 28 °F 25 °F 74% South  at  5.0 mph 0.00 in / hr 1470 ft 5:08 AM CDT Normal
Cummings Maple Acres, Phillips, WI 33.2 °F 33 °F 27 °F 79% ESE  at  1.0 mph 0.00 in / hr 1542 ft 5:18 AM CDT Rapid Fire
WIDOT Fifield - STH 13 south of Fifield, Fifield, WI 34 °F 34 °F 27 °F 74% SE  at  2 mph 0.00 in / hr 1450 ft 4:01 AM CDT MADIS
Fifield West, Park Falls, WI 33.3 °F 33 °F 26 °F 73% ESE  at  1.7 mph - / hr 1453 ft 5:17 AM CDT Normal

Show More Stations Show Fewer Stations

What do you think?

We're not finished. Please let us know what you like, what you don't like, and what you are still missing.